Ana Sayfa
METAR-TAF:

METAR-TAF

Havaalanları :

Draughon-Miller Central Texas Regional Airport

Temple, Teksas, Amerika Birleşik Devletleri

Enlem: 31-09N, Boylam: 097-24W, yükseklik: 208 m

Güncel hava durumu gözlemi

Rapor saat 18:51 UTC de 18 dakika önce yapıldı.
Rüzgar güneydan 13 kt ve 18 kt'a kadar ani rüzgarlar
Sıcaklık 22°C
Nem 43%
Basınç 1019 hPa
Görüş mesafesi: 16.1 km
Açık gökyüzü

METAR: KTPL 041851Z AUTO 17013G18KT 10SM CLR 22/09 A3009 RMK AO2 SLP185 T02170089

Saat: 13:09 (19:09 UTC)


TAF: eksik

4.000'den fazla havaalanı için hava durumu gözlemleri ve tahminleri (METAR ve TAF raporları).

Kullanılabilir istasyonlar harita üzerinde sarı ve kırmızı noktalarla gösterilir.

İstasyonun adını görmek için fareyi noktanın üzerinde gezdirin.

Sonrasında hava gözlem ve tahminlerini görmek için tıklayın.

Haritayı değiştirmek için: yaklaştırmak için siyah artı işaretli yeşil düğmeye ve uzaklaştırmak için de eksi işaretli düğmeye hızla tıklayın; bitişik haritalar için yeşil okları kullanın.


METAR-TAF: